Tuesday, May 31, 2016
14:13 UTC
  |  Log In   |  Register Free
Airport Search:

West Houston Airport
(KIWS)

West Houston Airport Diagram
No Airport Diagram Available

FAA data valid effective Mar 31 2016 - May 26 2016 (unless otherwise noted).

 
 
 
 
 
 
 
 
 
 
 
 
 
 
Summary: West Houston (IWS)

Weather Summary


METAR for KIWS is not available. Closest METAR is for KTME 11.8 nm NE
KTME  (11.8 nm NE)   (most recent observation was updated at 31:13 UTC)
311355Z AUTO 17006KT 9SM CLR 27/23 A2993 RMK AO2

KDWH  (15.9 nm SW)   (most recent observation was updated at 31:13 UTC)
311353Z 17005KT 10SM CLR 26/23 A2993 RMK AO2 SLP132 T02610233

TAF for KIWS is not available.
KSGR
311127Z 3112/0112 VRB03KT P6SM SCT015 SCT250 FM311500 17006KT P6SM SCT025 FM311800 14008KT P6SM VCTS SCT040CB SCT150 BKN250 FM010200 16005KT P6SM FEW035 BKN250 FM011000 VRB02KT P6SM BKN025

KIAH  (19.9 nm SW)   (most recent observation was updatred at 31:11 UTC)
311127Z 3112/0118 00000KT P6SM MIFG SCT250 FM311400 16005KT P6SM SCT020 FM312000 13009KT P6SM VCTS SCT045CB SCT150 BKN250 FM010300 16005KT P6SM FEW035 BKN250 FM011000 VRB04KT P6SM BKN015 FM011500 15006KT P6SM BKN025


KHOU  (23.0 nm NW)   (most recent observation was updatred at 31:11 UTC)
311127Z 3112/0112 00000KT P6SM FEW015 BKN250 FM311500 16005KT P6SM SCT025 FM311800 14009KT P6SM VCTS SCT040CB SCT150 BKN250 FM010100 16005KT P6SM FEW035 BKN250 FM011000 VRB02KT P6SM BKN025
GlobalAir.com is loading additional information.
Current weather conditions are not available for IWS.

The nearest NOAA weather station is at SGR (10.3 nm SE from IWS)
 Current Weather at SGR
76.0 F° (24.4 C°)
Fair
South winds at 3.5 mph
Pressure:
29.91 in
Humidity:
88%
Wind:
South at 3.5 MPH (3 KT)
Dew Point:
72.0 F° (22.2 C°)
Visibility:
10.00 mi
IWS NOAA Radar

Runway Summary

ID Dimensions Surface Instrument Approaches
15/33 75 ft x 3953 ft Asphalt, Good Condition RNAV (GPS) RWY 15
RNAV (GPS) RWY 15
RNAV (GPS) RWY 33
VOR-D

Communications Summary


CTAF123.05
UNICOM123.05
ATISN/A
HOUSTON APPROACH123.8
HOUSTON DEPARTURE123.8
CLEARANCE DELIVERY121.15

Closest Alternate Airports with Instrument Procedures

KEYQ - Weiser Air Park - 8.3 nm NE from IWS

O07 - Westheimer Air Park - 9.8 nm SW from IWS

O07 - Westheimer Air Park - 9.8 nm SW from IWS

O07 - Westheimer Air Park - 9.8 nm SW from IWS

KSGR - Sugar Land Regional - 13.6 nm SE from IWS

40XA - Lone Star - 14.6 nm SE from IWS

KT51 - Dan Jones International - 15.5 nm NE from IWS

KDWH - David Wayne Hooks Memorial - 18.3 nm NE from IWS

KIAH - George Bush Intercontinental/Houston - 22.9 nm NE from IWS

KAXH - Houston-Southwest - 24.6 nm SE from IWS

Find All Airport Services Find A Hotel Find A Rental Car Find A Golf Course Find A Restaurant $100 Hamburger



FBO's on the Field
FBO Company Facility Photos Services Transportation Aviation Fuel Prices: Prices include tax
Catering Weather Repair Courtesy Rental Type 100LL JetA JetA+ MOGAS 8087
 
West Houston Airport

Currently rated 2.5 by 2 people
FS:Independent
Last Updated: May-27
Login to update fuel prices
SS:
Contact West Houston AirportMore FBO Information
 
Add another FBO Facility Photos Catering Weather Repair Courtesy Rental Type 100LL JetA JetA+ MOGAS 8087
Services Transportation Aviation Fuel Prices: Prices include tax


model-print
model-print
model-print
model-print